createdAt,value
2017-09-03T00:01:02.767Z,10.27
2017-09-03T00:03:29.041Z,11.02
2017-09-03T00:05:55.306Z,11.23
2017-09-03T00:08:21.574Z,12.35
2017-09-03T00:10:47.892Z,10.98
2017-09-03T00:13:14.182Z,12.02
2017-09-03T00:15:40.490Z,10.10
2017-09-03T00:18:06.762Z,11.45
2017-09-03T00:20:33.051Z,10.98
2017-09-03T00:22:59.371Z,10.93
2017-09-03T00:25:25.634Z,12.60
2017-09-03T00:27:51.925Z,13.68
2017-09-03T00:30:18.223Z,11.05
2017-09-03T00:32:44.518Z,12.30
2017-09-03T00:35:10.815Z,13.02
2017-09-03T00:37:37.143Z,12.68
2017-09-03T00:40:03.455Z,11.70
2017-09-03T00:42:29.793Z,12.57
2017-09-03T00:44:56.119Z,12.02
2017-09-03T00:47:22.406Z,11.90
2017-09-03T00:49:48.725Z,13.15
2017-09-03T00:52:15.051Z,12.52
2017-09-03T00:54:41.407Z,12.20
2017-09-03T00:57:07.725Z,13.77
2017-09-03T00:59:34.591Z,12.68
2017-09-03T01:02:00.880Z,12.32
2017-09-03T01:04:27.225Z,12.37
2017-09-03T01:06:53.538Z,13.93
2017-09-03T01:09:19.852Z,13.85
2017-09-03T01:11:46.201Z,13.68
2017-09-03T01:14:12.498Z,13.60
2017-09-03T01:16:38.822Z,14.05
2017-09-03T01:19:05.174Z,14.43
2017-09-03T01:21:31.474Z,13.35
2017-09-03T01:23:57.778Z,13.23
2017-09-03T01:26:24.040Z,12.63
2017-09-03T01:28:50.347Z,14.55
2017-09-03T01:31:16.621Z,14.45
2017-09-03T01:33:42.925Z,14.73
2017-09-03T01:36:09.194Z,15.55
2017-09-03T01:38:35.478Z,13.90
2017-09-03T01:41:01.768Z,12.90
2017-09-03T01:43:28.057Z,14.70
2017-09-03T01:45:54.330Z,13.45
2017-09-03T01:48:20.620Z,14.30
2017-09-03T01:50:46.931Z,16.40
2017-09-03T01:53:13.203Z,16.80
2017-09-03T01:55:39.522Z,15.48
2017-09-03T01:58:05.795Z,15.98
2017-09-03T02:00:32.076Z,16.80
2017-09-03T02:02:58.361Z,17.98
2017-09-03T02:05:24.669Z,17.87
2017-09-03T02:07:50.972Z,17.30
2017-09-03T02:10:17.236Z,18.65
2017-09-03T02:12:43.546Z,18.62
2017-09-03T02:15:09.874Z,18.77
2017-09-03T02:17:36.160Z,17.23
2017-09-03T02:20:02.495Z,18.12
2017-09-03T02:22:28.761Z,17.73
2017-09-03T02:24:55.043Z,19.02
2017-09-03T02:27:21.347Z,19.20
2017-09-03T02:29:47.620Z,19.67
2017-09-03T02:32:14.806Z,19.62
2017-09-03T02:34:41.113Z,21.12
2017-09-03T02:37:07.377Z,20.20
2017-09-03T02:39:33.679Z,19.92
2017-09-03T02:41:59.968Z,20.80
2017-09-03T02:44:26.267Z,19.50
2017-09-03T02:46:52.554Z,20.45
2017-09-03T02:49:18.825Z,22.00
2017-09-03T02:51:45.119Z,21.20
2017-09-03T02:54:11.436Z,21.15
2017-09-03T02:56:37.717Z,20.92
2017-09-03T02:59:03.986Z,21.45
2017-09-03T03:01:30.528Z,23.83
2017-09-03T03:03:56.816Z,22.33
2017-09-03T03:06:23.952Z,21.87
2017-09-03T03:08:50.265Z,21.12
2017-09-03T03:11:16.574Z,21.98
2017-09-03T03:13:42.874Z,21.55
2017-09-03T03:16:09.139Z,22.17
2017-09-03T03:18:36.325Z,20.35
2017-09-03T03:21:02.604Z,20.45
2017-09-03T03:23:28.903Z,20.65
2017-09-03T03:25:55.188Z,22.00
2017-09-03T03:28:21.455Z,21.35
2017-09-03T03:30:47.753Z,21.67
2017-09-03T03:33:14.057Z,21.05
2017-09-03T03:35:40.337Z,20.85
2017-09-03T03:38:06.614Z,21.70
2017-09-03T03:40:32.924Z,25.05
2017-09-03T03:42:59.197Z,22.37
2017-09-03T03:45:25.501Z,22.17
2017-09-03T03:47:51.786Z,23.62
2017-09-03T03:50:18.090Z,24.15
2017-09-03T03:52:44.399Z,22.27
2017-09-03T03:55:10.676Z,21.50
2017-09-03T03:57:36.947Z,22.45
2017-09-03T04:00:03.252Z,23.65
2017-09-03T04:02:29.542Z,22.60
2017-09-03T04:04:55.800Z,21.95
2017-09-03T04:07:22.090Z,24.15
2017-09-03T04:09:48.371Z,22.27
2017-09-03T04:12:14.665Z,22.92
2017-09-03T04:14:40.940Z,23.45
2017-09-03T04:17:07.209Z,23.62
2017-09-03T04:19:33.485Z,20.55
2017-09-03T04:21:59.734Z,20.83
2017-09-03T04:24:26.019Z,23.62
2017-09-03T04:26:52.635Z,23.00
2017-09-03T04:29:18.927Z,23.83
2017-09-03T04:31:45.186Z,22.33
2017-09-03T04:34:11.877Z,22.80
2017-09-03T04:36:38.142Z,21.67
2017-09-03T04:39:04.423Z,22.58
2017-09-03T04:41:30.709Z,24.10
2017-09-03T04:43:56.993Z,24.33
2017-09-03T04:46:23.277Z,22.60
2017-09-03T04:48:49.551Z,23.92
2017-09-03T04:51:15.836Z,22.40
2017-09-03T04:53:42.097Z,23.20
2017-09-03T04:56:08.386Z,23.83
2017-09-03T04:58:34.667Z,21.92
2017-09-03T05:01:00.937Z,24.75
2017-09-03T05:03:27.242Z,23.25
2017-09-03T05:05:53.520Z,24.48
2017-09-03T05:08:19.830Z,23.40
2017-09-03T05:10:46.212Z,24.30
2017-09-03T05:13:12.481Z,25.55
2017-09-03T05:15:38.739Z,22.37
2017-09-03T05:18:05.032Z,21.73
2017-09-03T05:20:31.309Z,21.87
2017-09-03T05:22:57.989Z,22.40
2017-09-03T05:25:24.275Z,23.58
2017-09-03T05:27:50.537Z,22.42
2017-09-03T05:30:16.826Z,23.48
2017-09-03T05:32:43.108Z,22.48
2017-09-03T05:35:09.397Z,23.45
2017-09-03T05:37:35.665Z,21.73
2017-09-03T05:40:01.943Z,24.50
2017-09-03T05:42:28.223Z,22.30
2017-09-03T05:44:54.529Z,25.05
2017-09-03T05:47:20.854Z,24.55
2017-09-03T05:49:47.146Z,24.73
2017-09-03T05:52:13.447Z,25.52
2017-09-03T05:54:39.709Z,24.70
2017-09-03T05:57:06.026Z,25.45
2017-09-03T05:59:32.331Z,22.33
2017-09-03T06:01:58.635Z,25.20
2017-09-03T06:04:24.927Z,24.17
2017-09-03T06:06:51.223Z,22.00
2017-09-03T06:09:17.555Z,23.83
2017-09-03T06:11:43.854Z,23.73
2017-09-03T06:14:10.186Z,22.10
2017-09-03T06:16:36.464Z,22.00
2017-09-03T06:19:02.765Z,22.27
2017-09-03T06:21:29.081Z,21.60
2017-09-03T06:23:55.357Z,23.05
2017-09-03T06:26:21.678Z,20.50
2017-09-03T06:28:47.954Z,20.42
2017-09-03T06:31:14.245Z,20.92
2017-09-03T06:33:40.524Z,19.87
2017-09-03T06:36:06.873Z,20.12
2017-09-03T06:38:33.154Z,18.25
2017-09-03T06:40:59.458Z,20.52
2017-09-03T06:43:25.717Z,19.70
2017-09-03T06:45:52.029Z,19.87
2017-09-03T06:48:18.326Z,17.67
2017-09-03T06:50:44.611Z,16.60
2017-09-03T06:53:10.921Z,16.40
2017-09-03T06:55:37.222Z,17.17
2017-09-03T06:58:03.517Z,16.02
2017-09-03T07:00:29.809Z,16.35
2017-09-03T07:02:56.123Z,15.27
2017-09-03T07:05:22.426Z,16.00
2017-09-03T07:07:48.743Z,15.88
2017-09-03T07:10:15.075Z,15.57
2017-09-03T07:12:41.373Z,16.30
2017-09-03T07:15:07.646Z,16.20
2017-09-03T07:17:33.963Z,15.13
2017-09-03T07:20:00.289Z,14.67
2017-09-03T07:22:26.574Z,16.30
2017-09-03T07:24:52.932Z,13.73
2017-09-03T07:27:19.198Z,15.80
2017-09-03T07:29:45.490Z,16.27
2017-09-03T07:32:11.819Z,16.50
2017-09-03T07:34:38.126Z,16.03
2017-09-03T07:37:04.465Z,15.40
2017-09-03T07:39:30.744Z,18.43
2017-09-03T07:41:57.047Z,17.53
2017-09-03T07:44:23.335Z,15.77
2017-09-03T07:46:49.929Z,16.33
2017-09-03T07:49:16.209Z,17.20
2017-09-03T07:51:42.496Z,17.73
2017-09-03T07:54:08.815Z,17.37
2017-09-03T07:56:35.097Z,17.43
2017-09-03T07:59:01.431Z,19.10
2017-09-03T08:01:27.705Z,19.23
2017-09-03T08:03:54.009Z,16.60
2017-09-03T08:06:20.304Z,15.73
2017-09-03T08:08:46.605Z,17.30
2017-09-03T08:11:12.918Z,16.10
2017-09-03T08:13:40.060Z,17.90
2017-09-03T08:16:06.331Z,16.87
2017-09-03T08:18:32.630Z,18.10
2017-09-03T08:20:58.910Z,17.00
2017-09-03T08:23:25.219Z,16.57
2017-09-03T08:25:51.500Z,17.23
2017-09-03T08:28:17.796Z,15.70
2017-09-03T08:30:44.065Z,16.27
2017-09-03T08:33:10.379Z,16.17
2017-09-03T08:35:36.688Z,15.57
2017-09-03T08:38:02.978Z,17.93
2017-09-03T08:40:29.303Z,17.37
2017-09-03T08:42:55.582Z,16.60
2017-09-03T08:45:21.885Z,17.43
2017-09-03T08:47:48.157Z,17.03
2017-09-03T08:50:14.471Z,16.17
2017-09-03T08:52:40.746Z,15.80
2017-09-03T08:55:07.077Z,17.23
2017-09-03T08:57:33.348Z,14.47
2017-09-03T08:59:59.670Z,15.70
2017-09-03T09:02:25.953Z,16.73
2017-09-03T09:04:52.291Z,14.63
2017-09-03T09:07:18.572Z,14.90
2017-09-03T09:09:45.765Z,15.43
2017-09-03T09:12:12.059Z,15.17
2017-09-03T09:14:38.824Z,16.17
2017-09-03T09:17:05.136Z,15.20
2017-09-03T09:19:31.459Z,15.10
2017-09-03T09:21:57.766Z,13.23
2017-09-03T09:24:24.106Z,11.50
2017-09-03T09:26:51.413Z,11.67
2017-09-03T09:29:17.754Z,11.50
2017-09-03T09:31:44.073Z,11.60
2017-09-03T09:34:10.376Z,12.80
2017-09-03T09:36:36.650Z,13.03
2017-09-03T09:39:03.035Z,13.87
2017-09-03T09:41:30.598Z,13.93
2017-09-03T09:43:56.919Z,15.60
2017-09-03T09:46:23.246Z,15.30
2017-09-03T09:48:49.561Z,14.40
2017-09-03T09:51:15.914Z,14.40
2017-09-03T09:53:42.241Z,13.77
2017-09-03T09:56:08.627Z,13.50
2017-09-03T09:58:34.939Z,13.17
2017-09-03T10:01:01.214Z,14.13
2017-09-03T10:03:27.514Z,14.80
2017-09-03T10:05:53.801Z,14.97
2017-09-03T10:08:20.082Z,15.20
2017-09-03T10:10:46.438Z,13.17
2017-09-03T10:13:12.731Z,13.10
2017-09-03T10:15:39.035Z,14.20
2017-09-03T10:18:05.330Z,13.33
2017-09-03T10:20:31.702Z,12.10
2017-09-03T10:22:57.967Z,12.30
2017-09-03T10:25:24.252Z,11.43
2017-09-03T10:27:50.538Z,12.90
2017-09-03T10:30:16.878Z,12.67
2017-09-03T10:32:43.480Z,14.03
2017-09-03T10:35:09.853Z,12.87
2017-09-03T10:37:36.215Z,13.50
2017-09-03T10:40:02.601Z,12.83
2017-09-03T10:42:28.899Z,15.00
2017-09-03T10:44:55.201Z,13.10
2017-09-03T10:47:21.502Z,14.50
2017-09-03T10:49:47.852Z,13.87
2017-09-03T10:52:14.230Z,14.30
2017-09-03T10:54:40.540Z,15.40
2017-09-03T10:57:06.835Z,14.80
2017-09-03T10:59:33.115Z,14.90
2017-09-03T11:01:59.416Z,16.07
2017-09-03T11:04:25.681Z,14.57
2017-09-03T11:06:52.001Z,14.37
2017-09-03T11:09:18.318Z,15.50
2017-09-03T11:11:44.594Z,14.10
2017-09-03T11:14:10.905Z,14.40
2017-09-03T11:16:37.233Z,14.87
2017-09-03T11:19:03.514Z,13.87
2017-09-03T11:21:29.823Z,12.37
2017-09-03T11:23:56.123Z,13.27
2017-09-03T11:26:22.443Z,11.57
2017-09-03T11:28:48.767Z,10.93
2017-09-03T11:31:15.058Z,11.13
2017-09-03T11:33:41.352Z,12.80
2017-09-03T11:36:08.510Z,11.70
2017-09-03T11:38:34.800Z,11.30
2017-09-03T11:41:01.114Z,7.43
2017-09-03T11:43:27.417Z,5.40
2017-09-03T11:45:54.684Z,5.83
2017-09-03T11:48:21.149Z,4.67
2017-09-03T11:50:47.460Z,5.60
2017-09-03T11:53:13.764Z,5.30
2017-09-03T11:55:40.095Z,5.50
2017-09-03T11:58:06.391Z,5.40
2017-09-03T12:00:32.705Z,5.43
2017-09-03T12:02:59.047Z,6.30
2017-09-03T12:05:25.369Z,6.40
2017-09-03T12:07:51.670Z,6.40
2017-09-03T12:10:17.996Z,6.03
2017-09-03T12:12:44.327Z,6.73
2017-09-03T12:15:10.642Z,6.50
2017-09-03T12:17:36.959Z,6.57
2017-09-03T12:20:03.305Z,7.40
2017-09-03T12:22:29.623Z,10.97
2017-09-03T12:24:56.553Z,9.63
2017-09-03T12:27:22.867Z,10.13
2017-09-03T12:29:49.664Z,10.33
2017-09-03T12:32:16.375Z,9.90
2017-09-03T12:34:42.681Z,9.47
2017-09-03T12:37:09.013Z,9.77
2017-09-03T12:39:35.323Z,9.60
2017-09-03T12:42:01.645Z,8.60
2017-09-03T12:44:27.942Z,8.20
2017-09-03T12:46:54.260Z,8.93
2017-09-03T12:49:20.553Z,9.77
2017-09-03T12:51:46.890Z,8.20
2017-09-03T12:54:13.200Z,7.63
2017-09-03T12:56:39.488Z,7.03
2017-09-03T12:59:05.786Z,7.33
2017-09-03T13:01:32.159Z,6.50
2017-09-03T13:03:58.445Z,7.07
2017-09-03T13:06:24.779Z,6.73
2017-09-03T13:08:51.098Z,6.50
2017-09-03T13:11:17.405Z,5.80
2017-09-03T13:13:43.763Z,5.80
2017-09-03T13:16:10.081Z,6.47
2017-09-03T13:18:36.435Z,6.40
2017-09-03T13:21:02.727Z,4.80
2017-09-03T13:23:29.059Z,4.77
2017-09-03T13:25:55.362Z,4.17
2017-09-03T13:28:21.671Z,3.53
2017-09-03T13:30:47.969Z,3.33
2017-09-03T13:33:14.295Z,3.60
2017-09-03T13:35:40.589Z,3.50
2017-09-03T13:38:06.921Z,3.00
2017-09-03T13:40:33.206Z,3.57
2017-09-03T13:42:59.874Z,3.60
2017-09-03T13:45:26.175Z,3.87
2017-09-03T13:47:52.492Z,3.83
2017-09-03T13:50:18.792Z,3.87
2017-09-03T13:52:45.112Z,4.07
2017-09-03T13:55:11.424Z,4.47
2017-09-03T13:57:37.739Z,3.67
2017-09-03T14:00:04.027Z,3.40
2017-09-03T14:02:31.165Z,3.70
2017-09-03T14:04:57.458Z,3.80
2017-09-03T14:07:23.793Z,3.70
2017-09-03T14:09:50.091Z,3.40
2017-09-03T14:12:17.329Z,3.23
2017-09-03T14:14:44.596Z,3.43
2017-09-03T14:17:10.923Z,3.20
2017-09-03T14:19:37.247Z,4.10
2017-09-03T14:22:03.541Z,3.87
2017-09-03T14:24:29.849Z,3.17
2017-09-03T14:26:56.134Z,3.70
2017-09-03T14:29:22.437Z,2.90
2017-09-03T14:31:48.735Z,3.07
2017-09-03T14:34:15.067Z,2.93
2017-09-03T14:36:41.354Z,3.60
2017-09-03T14:39:07.643Z,3.33
2017-09-03T14:41:33.921Z,2.80
2017-09-03T14:44:00.221Z,3.53
2017-09-03T14:46:26.523Z,2.90
2017-09-03T14:48:52.810Z,3.60
2017-09-03T14:51:19.114Z,3.70
2017-09-03T14:53:45.430Z,3.90
2017-09-03T14:56:11.701Z,3.10
2017-09-03T14:58:37.989Z,3.37
2017-09-03T15:01:04.270Z,2.90
2017-09-03T15:03:30.588Z,3.53
2017-09-03T15:05:56.911Z,2.90
2017-09-03T15:08:23.198Z,3.37
2017-09-03T15:10:49.529Z,3.27
2017-09-03T15:13:15.815Z,3.03
2017-09-03T15:15:42.173Z,3.33
2017-09-03T15:18:08.457Z,3.40
2017-09-03T15:20:34.761Z,3.00
2017-09-03T15:23:01.068Z,3.63
2017-09-03T15:25:27.391Z,2.87
2017-09-03T15:27:53.683Z,2.70
2017-09-03T15:30:20.026Z,2.90
2017-09-03T15:32:46.333Z,2.63
2017-09-03T15:35:13.101Z,2.70
2017-09-03T15:37:39.402Z,2.83
2017-09-03T15:40:05.697Z,2.70
2017-09-03T15:42:32.011Z,2.80
2017-09-03T15:44:58.310Z,2.73
2017-09-03T15:47:24.686Z,3.07
2017-09-03T15:49:50.968Z,2.50
2017-09-03T15:52:17.294Z,2.50
2017-09-03T15:54:43.617Z,2.50
2017-09-03T15:57:09.923Z,3.00
2017-09-03T15:59:36.235Z,2.90
2017-09-03T16:02:02.606Z,3.20
2017-09-03T16:04:28.903Z,3.30
2017-09-03T16:06:55.211Z,3.37
2017-09-03T16:09:21.543Z,3.70
2017-09-03T16:11:47.832Z,3.43
2017-09-03T16:14:14.130Z,3.20
2017-09-03T16:16:40.462Z,3.60
2017-09-03T16:19:07.582Z,3.30
2017-09-03T16:21:33.854Z,3.37
2017-09-03T16:24:00.137Z,3.50
2017-09-03T16:26:26.427Z,6.33
2017-09-03T16:28:52.728Z,3.60
2017-09-03T16:31:19.032Z,3.43
2017-09-03T16:33:45.334Z,3.07
2017-09-03T16:36:11.713Z,3.97
2017-09-03T16:38:38.331Z,3.43
2017-09-03T16:41:04.652Z,3.67
2017-09-03T16:43:31.013Z,3.73
2017-09-03T16:45:57.296Z,4.40
2017-09-03T16:48:23.600Z,4.30
2017-09-03T16:50:49.937Z,4.60
2017-09-03T16:53:16.257Z,3.20
2017-09-03T16:55:42.591Z,6.20
2017-09-03T16:58:08.916Z,3.87
2017-09-03T17:00:35.272Z,3.97
2017-09-03T17:03:01.892Z,4.30
2017-09-03T17:05:28.264Z,3.63
2017-09-03T17:07:54.602Z,3.67
2017-09-03T17:10:20.910Z,3.73
2017-09-03T17:12:47.261Z,3.67
2017-09-03T17:15:13.594Z,4.00
2017-09-03T17:17:39.944Z,4.20
2017-09-03T17:20:06.382Z,4.13
2017-09-03T17:22:32.715Z,3.97
2017-09-03T17:24:59.032Z,3.50
2017-09-03T17:27:25.382Z,4.40
2017-09-03T17:29:52.652Z,4.37
2017-09-03T17:32:19.012Z,4.70
2017-09-03T17:34:45.359Z,4.70
2017-09-03T17:37:12.591Z,4.00
2017-09-03T17:39:39.794Z,3.93
2017-09-03T17:42:09.157Z,3.73
2017-09-03T17:44:35.503Z,4.33
2017-09-03T17:47:01.918Z,4.23
2017-09-03T17:49:28.253Z,4.13
2017-09-03T17:51:54.632Z,3.47
2017-09-03T17:54:20.967Z,3.80
2017-09-03T17:56:47.310Z,3.40
2017-09-03T17:59:13.655Z,4.78
2017-09-03T18:01:40.029Z,4.40
2017-09-03T18:04:06.963Z,3.87
2017-09-03T18:06:33.371Z,7.28
2017-09-03T18:08:59.685Z,4.60
2017-09-03T18:11:26.004Z,4.22
2017-09-03T18:13:52.332Z,4.53
2017-09-03T18:16:18.766Z,4.20
2017-09-03T18:18:45.145Z,5.80
2017-09-03T18:21:11.487Z,4.43
2017-09-03T18:23:37.843Z,4.00
2017-09-03T18:26:04.182Z,5.40
2017-09-03T18:28:30.535Z,4.40
2017-09-03T18:30:58.659Z,3.92
2017-09-03T18:33:25.083Z,5.50
2017-09-03T18:35:51.462Z,4.45
2017-09-03T18:38:20.703Z,4.47
2017-09-03T18:40:49.292Z,4.60
2017-09-03T18:43:17.435Z,4.00
2017-09-03T18:45:43.781Z,4.75
2017-09-03T18:48:10.102Z,5.10
2017-09-03T18:50:37.877Z,4.53
2017-09-03T18:53:04.218Z,5.82
2017-09-03T18:55:32.309Z,4.82
2017-09-03T18:58:00.210Z,6.90
2017-09-03T19:00:28.318Z,4.82
2017-09-03T19:02:56.857Z,5.20
2017-09-03T19:18:40.005Z,4.57
2017-09-03T19:21:06.318Z,5.45
2017-09-03T19:23:32.686Z,4.90
2017-09-03T19:25:59.001Z,6.82
2017-09-03T19:28:25.350Z,6.53
2017-09-03T19:30:51.692Z,8.30
2017-09-03T19:33:18.030Z,7.45
2017-09-03T19:35:45.218Z,5.80
2017-09-03T19:38:13.488Z,5.85
2017-09-03T19:40:39.845Z,5.53
2017-09-03T19:43:06.177Z,5.18
2017-09-03T19:45:32.504Z,5.87
2017-09-03T19:47:58.875Z,4.80
2017-09-03T19:50:25.195Z,6.10
2017-09-03T19:52:51.512Z,5.65
2017-09-03T19:55:17.790Z,6.30
2017-09-03T19:57:44.134Z,6.78
2017-09-03T20:00:10.453Z,5.30
2017-09-03T20:02:36.774Z,5.45
2017-09-03T20:05:03.094Z,6.75
2017-09-03T20:07:30.166Z,5.97
2017-09-03T20:09:56.495Z,5.72
2017-09-03T20:12:22.824Z,6.05
2017-09-03T20:14:49.126Z,6.62
2017-09-03T20:17:15.434Z,11.00
2017-09-03T20:19:41.779Z,8.90
2017-09-03T20:22:08.073Z,6.35
2017-09-03T20:24:34.381Z,6.55
2017-09-03T20:27:01.276Z,8.52
2017-09-03T20:29:27.564Z,6.75
2017-09-03T20:31:54.140Z,7.25
2017-09-03T20:34:20.401Z,6.53
2017-09-03T20:36:46.710Z,6.47
2017-09-03T20:39:13.046Z,5.53
2017-09-03T20:41:39.429Z,6.50
2017-09-03T20:44:05.710Z,7.05
2017-09-03T20:46:32.912Z,6.78
2017-09-03T20:48:59.220Z,6.18
2017-09-03T20:51:25.757Z,6.35
2017-09-03T20:53:52.042Z,5.65
2017-09-03T20:56:18.329Z,6.10
2017-09-03T20:58:44.664Z,6.55
2017-09-03T21:01:10.935Z,7.25
2017-09-03T21:03:37.252Z,7.60
2017-09-03T21:06:03.554Z,6.37
2017-09-03T21:08:29.886Z,7.15
2017-09-03T21:10:56.145Z,6.47
2017-09-03T21:13:22.443Z,6.70
2017-09-03T21:15:48.725Z,7.93
2017-09-03T21:18:15.036Z,7.37
2017-09-03T21:20:41.344Z,6.70
2017-09-03T21:23:07.611Z,6.22
2017-09-03T21:25:33.925Z,6.55
2017-09-03T21:28:00.215Z,6.32
2017-09-03T21:30:26.542Z,5.85
2017-09-03T21:32:52.866Z,5.30
2017-09-03T21:35:19.186Z,7.47
2017-09-03T21:37:45.478Z,6.37
2017-09-03T21:40:11.787Z,5.57
2017-09-03T21:42:38.106Z,6.22
2017-09-03T21:45:04.404Z,6.68
2017-09-03T21:47:30.711Z,6.07
2017-09-03T21:49:57.008Z,5.40
2017-09-03T21:52:23.306Z,5.78
2017-09-03T21:54:49.575Z,5.37
2017-09-03T21:57:15.880Z,7.50
2017-09-03T21:59:42.146Z,17.12
2017-09-03T22:02:08.685Z,49.58
2017-09-03T22:04:34.983Z,8.30
2017-09-03T22:07:01.265Z,8.15
2017-09-03T22:09:27.548Z,7.55
2017-09-03T22:11:54.397Z,11.05
2017-09-03T22:14:20.716Z,8.35
2017-09-03T22:16:46.989Z,12.05
2017-09-03T22:19:13.298Z,21.33
2017-09-03T22:21:39.635Z,10.10
2017-09-03T22:24:05.974Z,11.25
2017-09-03T22:26:32.233Z,10.23
2017-09-03T22:28:58.553Z,10.07
2017-09-03T22:31:24.864Z,17.23
2017-09-03T22:33:51.116Z,10.55
2017-09-03T22:36:17.413Z,10.60
2017-09-03T22:38:43.704Z,10.10
2017-09-03T22:41:10.007Z,10.30
2017-09-03T22:43:36.295Z,9.02
2017-09-03T22:46:02.627Z,8.30
2017-09-03T22:48:28.909Z,9.05
2017-09-03T22:50:55.692Z,8.10
2017-09-03T22:53:21.977Z,7.10
2017-09-03T22:55:48.259Z,8.15
2017-09-03T22:58:14.556Z,8.88
2017-09-03T23:00:40.827Z,7.45
2017-09-03T23:03:07.117Z,7.65
2017-09-03T23:05:33.437Z,7.25
2017-09-03T23:07:59.747Z,6.65
2017-09-03T23:10:26.014Z,6.57
2017-09-03T23:12:52.303Z,6.45
2017-09-03T23:15:18.593Z,7.10
2017-09-03T23:17:44.879Z,6.70
2017-09-03T23:20:11.209Z,7.32
2017-09-03T23:22:37.527Z,6.30
2017-09-03T23:25:03.810Z,6.25
2017-09-03T23:27:30.112Z,6.40
2017-09-03T23:29:56.877Z,6.20
2017-09-03T23:32:23.150Z,6.60
2017-09-03T23:34:49.424Z,6.28
2017-09-03T23:37:15.706Z,6.90
2017-09-03T23:39:42.006Z,6.40
2017-09-03T23:42:08.307Z,6.57
2017-09-03T23:44:35.582Z,6.90
2017-09-03T23:47:01.878Z,6.50
2017-09-03T23:49:28.181Z,6.20
2017-09-03T23:51:54.646Z,6.47
2017-09-03T23:54:20.909Z,5.93
2017-09-03T23:56:47.638Z,7.00
2017-09-03T23:59:13.916Z,7.85
